Time;durP1;ratioP1;P1;durP2;ratioP2;P2;SDS_P1;SDS_P2;PMS_P1;PMS_P2;Temp;Humidity;BMP_temperature;BMP_pressure;BME280_temperature;BME280_humidity;BME280_pressure;Samples;Min_cycle;Max_cycle;Signal;HPM_P1;HPM_P2
2022/05/07 00:00:26;;;;;;;;;;;;;;;8.20;65.01;100954.71;105720;1270;25595;-61
2022/05/07 00:03:05;;;;;;;;;;;;;;;8.17;65.30;100953.71;105578;1271;24731;-60
2022/05/07 00:05:34;;;;;;;;;;;;;;;8.13;65.13;100955.67;105884;1271;24183;-61
2022/05/07 00:08:07;;;;;;;;;;;;;;;8.11;65.10;100956.13;105775;1271;24309;-61
2022/05/07 00:10:38;;;;;;;;;;;;;;;8.10;65.01;100952.80;105714;1270;24327;-60
2022/05/07 00:13:08;;;;;;;;;;;;;;;8.10;65.32;100959.35;105719;1271;24316;-59
2022/05/07 00:15:38;;;;;;;;;;;;;;;8.08;65.35;100958.85;105635;1271;22582;-61
2022/05/07 00:18:10;;;;;;;;;;;;;;;8.05;65.23;100953.91;105817;1270;24305;-59
2022/05/07 00:20:45;;;;;;;;;;;;;;;8.04;65.31;100957.52;105957;1270;22702;-60
2022/05/07 00:23:16;;;;;;;;;;;;;;;8.02;65.38;100957.58;105962;1270;25260;-60
2022/05/07 00:25:46;;;;;;;;;;;;;;;8.00;65.42;100950.11;105547;1271;23072;-61
2022/05/07 00:28:15;;;;;;;;;;;;;;;7.99;65.42;100951.23;105915;1270;24300;-61
2022/05/07 00:30:45;;;;;;;;;;;;;;;7.98;65.67;100951.84;106117;1273;22538;-61
2022/05/07 00:33:16;;;;;;;;;;;;;;;7.95;65.77;100953.84;105850;1271;22505;-62
2022/05/07 00:35:46;;;;;;;;;;;;;;;7.89;66.28;100955.45;105668;1271;25250;-62
2022/05/07 00:38:15;;;;;;;;;;;;;;;7.80;66.40;100957.63;105867;1271;22612;-61
2022/05/07 00:40:45;;;;;;;;;;;;;;;7.75;66.36;100957.78;105965;1271;22716;-60
2022/05/07 00:43:18;;;;;;;;;;;;;;;7.74;66.04;100955.94;105840;1271;25544;-61
2022/05/07 00:45:48;;;;;;;;;;;;;;;7.73;66.14;100960.08;105849;1271;22526;-60
2022/05/07 00:48:19;;;;;;;;;;;;;;;7.70;66.27;100961.59;105792;1270;24275;-60
2022/05/07 00:53:37;;;;;;;;;;;;;;;7.50;66.96;100962.41;105698;1271;25544;-59
2022/05/07 00:56:08;;;;;;;;;;;;;;;7.40;67.64;100964.86;105676;1271;24287;-59
2022/05/07 00:58:39;;;;;;;;;;;;;;;7.32;68.09;100964.73;105743;1270;22522;-59
2022/05/07 01:01:09;;;;;;;;;;;;;;;7.25;68.16;100966.05;105790;1271;24287;-60
2022/05/07 01:03:39;;;;;;;;;;;;;;;7.17;68.42;100963.66;105728;1271;23332;-61
2022/05/07 01:06:09;;;;;;;;;;;;;;;7.14;68.12;100959.44;105588;1270;25294;-59
2022/05/07 01:08:40;;;;;;;;;;;;;;;7.14;68.22;100957.86;105747;1271;22547;-60
2022/05/07 01:11:10;;;;;;;;;;;;;;;7.09;68.30;100960.48;105742;1271;22516;-61
2022/05/07 01:13:41;;;;;;;;;;;;;;;7.05;68.36;100965.58;105945;1271;22540;-62
2022/05/07 01:16:12;;;;;;;;;;;;;;;6.94;68.91;100962.73;105791;1269;23103;-60
2022/05/07 01:18:45;;;;;;;;;;;;;;;6.81;68.87;100959.07;105811;1271;25348;-59
2022/05/07 01:21:17;;;;;;;;;;;;;;;6.81;68.70;100954.16;105768;1270;24367;-61
2022/05/07 01:23:48;;;;;;;;;;;;;;;6.80;68.84;100953.94;105884;1271;22524;-59
2022/05/07 01:26:20;;;;;;;;;;;;;;;6.80;68.86;100948.64;105849;1270;22540;-59
2022/05/07 01:28:50;;;;;;;;;;;;;;;6.80;68.59;100945.46;105594;1271;26645;-58
2022/05/07 01:31:20;;;;;;;;;;;;;;;6.82;68.70;100943.92;105790;1271;22672;-60
2022/05/07 01:33:50;;;;;;;;;;;;;;;6.84;68.69;100942.28;105678;1271;24428;-61
2022/05/07 01:36:20;;;;;;;;;;;;;;;6.85;68.74;100942.31;105611;1271;22509;-59
2022/05/07 01:38:51;;;;;;;;;;;;;;;6.87;68.74;100945.61;105729;1271;22506;-60
2022/05/07 01:41:21;;;;;;;;;;;;;;;6.84;69.19;100946.86;105609;1271;22712;-64
2022/05/07 01:43:53;;;;;;;;;;;;;;;6.81;69.39;100946.48;105668;1271;24302;-59
2022/05/07 01:49:11;;;;;;;;;;;;;;;6.80;69.14;100938.25;105621;1271;24356;-59
2022/05/07 01:51:42;;;;;;;;;;;;;;;6.80;69.04;100938.23;105822;1270;22534;-59
2022/05/07 01:54:12;;;;;;;;;;;;;;;6.81;68.95;100938.61;105776;1271;24234;-60
2022/05/07 01:56:42;;;;;;;;;;;;;;;6.81;69.09;100937.42;105568;1271;22528;-61
2022/05/07 01:59:11;;;;;;;;;;;;;;;6.79;69.55;100937.40;105823;1271;22671;-59
2022/05/07 02:01:42;;;;;;;;;;;;;;;6.75;69.91;100939.41;105890;1271;25239;-60
2022/05/07 02:04:12;;;;;;;;;;;;;;;6.69;69.91;100940.52;105767;1271;22659;-59
2022/05/07 02:06:43;;;;;;;;;;;;;;;6.66;70.11;100936.89;105891;1271;24447;-59
2022/05/07 02:09:14;;;;;;;;;;;;;;;6.60;70.33;100940.91;105741;1271;24428;-58
2022/05/07 02:11:44;;;;;;;;;;;;;;;6.55;70.55;100942.86;105678;1270;22515;-59
2022/05/07 02:14:14;;;;;;;;;;;;;;;6.51;70.49;100944.55;105769;1271;25280;-60
2022/05/07 02:16:44;;;;;;;;;;;;;;;6.49;70.55;100942.45;105767;1271;25304;-61
2022/05/07 02:19:14;;;;;;;;;;;;;;;6.46;70.36;100941.73;105791;1271;22655;-58
2022/05/07 02:21:44;;;;;;;;;;;;;;;6.47;70.19;100933.89;105595;1271;22634;-59
2022/05/07 02:24:14;;;;;;;;;;;;;;;6.47;70.13;100938.62;105567;1271;24250;-59
2022/05/07 02:26:44;;;;;;;;;;;;;;;6.50;70.07;100935.39;105735;1270;22512;-60
2022/05/07 02:29:15;;;;;;;;;;;;;;;6.50;70.44;100941.16;106075;1270;26491;-58
2022/05/07 02:32:03;;;;;;;;;;;;;;;6.48;70.52;100941.61;105624;1271;22674;-59
2022/05/07 02:34:33;;;;;;;;;;;;;;;6.47;70.57;100941.88;105814;1270;22598;-59
2022/05/07 02:37:03;;;;;;;;;;;;;;;6.48;70.11;100940.11;106034;1271;24431;-58
2022/05/07 02:39:34;;;;;;;;;;;;;;;6.51;70.33;100941.45;105694;1271;22594;-59
2022/05/07 02:44:51;;;;;;;;;;;;;;;6.51;70.55;100938.05;105526;1271;25506;-57
2022/05/07 02:47:21;;;;;;;;;;;;;;;6.51;71.11;100942.42;105686;1271;24302;-58
2022/05/07 02:49:52;;;;;;;;;;;;;;;6.50;71.45;100939.03;105549;1271;22547;-59
2022/05/07 02:52:22;;;;;;;;;;;;;;;6.48;71.82;100942.25;105899;1271;26471;-58
2022/05/07 02:54:52;;;;;;;;;;;;;;;6.45;72.33;100934.80;105856;1271;22534;-60
2022/05/07 02:57:22;;;;;;;;;;;;;;;6.41;72.22;100938.37;105905;1271;22561;-58
2022/05/07 02:59:52;;;;;;;;;;;;;;;6.38;72.33;100940.34;105792;1271;22511;-59
2022/05/07 03:02:22;;;;;;;;;;;;;;;6.36;72.40;100941.36;105612;1271;22528;-59
2022/05/07 03:04:55;;;;;;;;;;;;;;;6.33;72.17;100940.16;105674;1271;24207;-56
2022/05/07 03:07:26;;;;;;;;;;;;;;;6.33;72.36;100938.16;105672;1271;25316;-59
2022/05/07 03:09:56;;;;;;;;;;;;;;;6.34;72.50;100942.60;105664;1271;24263;-58
2022/05/07 03:12:27;;;;;;;;;;;;;;;6.33;72.28;100941.05;105892;1270;22550;-59
2022/05/07 03:14:57;;;;;;;;;;;;;;;6.33;72.32;100944.92;105654;1271;26340;-60
2022/05/07 03:17:27;;;;;;;;;;;;;;;6.35;72.22;100941.30;106084;1271;25653;-60
2022/05/07 03:19:57;;;;;;;;;;;;;;;6.37;72.16;100943.08;105826;1271;25248;-59
2022/05/07 03:22:27;;;;;;;;;;;;;;;6.40;72.48;100937.85;105779;1271;25308;-59
2022/05/07 03:24:58;;;;;;;;;;;;;;;6.41;72.69;100935.77;105756;1271;25205;-59
2022/05/07 03:27:29;;;;;;;;;;;;;;;6.40;72.77;100939.36;105946;1271;22540;-59
2022/05/07 03:29:59;;;;;;;;;;;;;;;6.42;72.97;100942.08;105876;1271;25053;-59
2022/05/07 03:32:29;;;;;;;;;;;;;;;6.43;73.30;100941.34;106190;1271;25440;-59
2022/05/07 03:34:59;;;;;;;;;;;;;;;6.42;74.07;100948.66;105643;1271;25244;-60
2022/05/07 03:37:29;;;;;;;;;;;;;;;6.40;74.08;100941.98;106139;1271;22531;-58
2022/05/07 03:39:59;;;;;;;;;;;;;;;6.40;74.17;100942.68;105710;1271;22527;-59
2022/05/07 03:42:33;;;;;;;;;;;;;;;6.42;74.06;100938.76;105825;1271;24319;-61
2022/05/07 03:45:04;;;;;;;;;;;;;;;6.44;74.23;100938.85;105648;1271;25248;-59
2022/05/07 03:47:34;;;;;;;;;;;;;;;6.45;74.44;100943.30;105709;1271;24281;-59
2022/05/07 03:50:05;;;;;;;;;;;;;;;6.46;74.83;100944.84;105867;1271;22506;-59
2022/05/07 03:55:23;;;;;;;;;;;;;;;6.50;75.67;100952.90;105552;1271;22524;-60
2022/05/07 03:57:54;;;;;;;;;;;;;;;6.49;75.64;100948.70;105729;1271;22531;-59
2022/05/07 04:00:24;;;;;;;;;;;;;;;6.53;75.69;100952.04;105672;1271;22522;-59
2022/05/07 04:02:54;;;;;;;;;;;;;;;6.58;75.78;100952.39;105964;1271;22503;-58
2022/05/07 04:05:25;;;;;;;;;;;;;;;6.63;75.76;100954.88;105836;1271;25497;-59
2022/05/07 04:07:55;;;;;;;;;;;;;;;6.68;75.87;100952.77;105565;1271;22511;-60
2022/05/07 04:10:25;;;;;;;;;;;;;;;6.73;76.33;100954.06;105556;1271;26077;-59
2022/05/07 04:12:57;;;;;;;;;;;;;;;6.79;76.56;100954.53;105615;1271;22512;-60
2022/05/07 04:15:27;;;;;;;;;;;;;;;6.86;76.86;100956.73;105826;1271;25303;-59
2022/05/07 04:17:57;;;;;;;;;;;;;;;6.94;76.92;100957.32;105867;1271;25292;-60
2022/05/07 04:20:28;;;;;;;;;;;;;;;7.02;77.00;100962.41;105650;1271;22506;-57
2022/05/07 04:22:58;;;;;;;;;;;;;;;7.10;77.30;100962.91;105729;1271;22734;-59
2022/05/07 04:25:28;;;;;;;;;;;;;;;7.18;77.25;100963.31;105577;1271;24322;-58
2022/05/07 04:27:58;;;;;;;;;;;;;;;7.29;77.67;100963.95;105755;1271;23909;-58
2022/05/07 04:30:28;;;;;;;;;;;;;;;7.40;78.41;100961.75;105749;1271;25318;-58
2022/05/07 04:32:59;;;;;;;;;;;;;;;7.51;78.37;100964.13;105777;1271;26200;-59
2022/05/07 04:35:29;;;;;;;;;;;;;;;7.62;78.26;100967.63;105644;1271;22527;-58
2022/05/07 04:37:59;;;;;;;;;;;;;;;7.74;78.83;100968.56;106051;1271;24325;-58
2022/05/07 04:40:29;;;;;;;;;;;;;;;7.84;78.89;100966.08;105579;1271;24258;-59
2022/05/07 04:42:59;;;;;;;;;;;;;;;7.95;78.85;100970.46;105935;1271;22685;-58
2022/05/07 04:45:30;;;;;;;;;;;;;;;8.04;79.12;100971.51;106134;1271;22566;-59
2022/05/07 04:47:59;;;;;;;;;;;;;;;8.14;79.28;100968.58;105638;1271;22532;-61
2022/05/07 04:50:29;;;;;;;;;;;;;;;8.24;79.31;100966.52;105751;1271;25416;-59
2022/05/07 04:52:59;;;;;;;;;;;;;;;8.33;79.32;100966.42;106074;1271;22615;-58
2022/05/07 04:55:29;;;;;;;;;;;;;;;8.43;79.55;100970.86;105574;1271;24329;-57
2022/05/07 04:58:00;;;;;;;;;;;;;;;8.56;79.60;100974.73;108900;1270;24329;-58
2022/05/07 05:00:30;;;;;;;;;;;;;;;8.72;79.90;100982.47;107001;1271;22522;-59
2022/05/07 05:03:01;;;;;;;;;;;;;;;8.87;79.44;100984.73;105720;1271;22531;-58
2022/05/07 05:05:32;;;;;;;;;;;;;;;9.03;79.54;100986.20;105651;1271;22531;-58
2022/05/07 05:08:03;;;;;;;;;;;;;;;9.16;79.26;100989.52;105695;1271;22582;-59
2022/05/07 05:10:33;;;;;;;;;;;;;;;9.32;79.19;100989.48;105688;1271;25344;-58
2022/05/07 05:13:03;;;;;;;;;;;;;;;9.45;79.12;100989.77;105780;1271;22518;-60
2022/05/07 05:15:35;;;;;;;;;;;;;;;9.57;78.99;100988.67;105855;1271;22662;-59
2022/05/07 05:18:06;;;;;;;;;;;;;;;9.68;79.14;100988.27;105936;1270;25354;-61
2022/05/07 05:20:39;;;;;;;;;;;;;;;9.79;78.88;100989.56;105853;1271;25346;-60
2022/05/07 05:23:10;;;;;;;;;;;;;;;9.92;78.78;100995.02;106109;1271;26521;-59
2022/05/07 05:25:43;;;;;;;;;;;;;;;10.04;78.38;100994.10;106277;1271;25362;-58
2022/05/07 05:28:16;;;;;;;;;;;;;;;10.14;78.43;100994.42;105993;1271;25511;-59
2022/05/07 05:30:51;;;;;;;;;;;;;;;10.23;78.30;100997.56;105891;1271;22538;-58
2022/05/07 05:33:21;;;;;;;;;;;;;;;10.34;78.21;100993.89;105802;1271;22531;-57
2022/05/07 05:35:53;;;;;;;;;;;;;;;10.44;78.13;100999.05;105854;1271;25469;-58
2022/05/07 05:38:24;;;;;;;;;;;;;;;10.54;78.18;101003.27;105735;1271;25268;-58
2022/05/07 05:40:54;;;;;;;;;;;;;;;10.63;77.86;101004.91;105895;1271;22665;-58
2022/05/07 05:43:24;;;;;;;;;;;;;;;10.71;77.91;101010.98;105998;1271;22507;-59
2022/05/07 05:45:54;;;;;;;;;;;;;;;10.78;78.06;101010.36;106034;1271;25337;-59
2022/05/07 05:48:29;;;;;;;;;;;;;;;10.85;77.89;101007.27;105923;1271;22565;-57
2022/05/07 05:51:00;;;;;;;;;;;;;;;10.93;77.80;101011.01;105994;1271;24204;-59
2022/05/07 05:53:30;;;;;;;;;;;;;;;11.00;77.85;101010.70;105972;1271;25308;-59
2022/05/07 05:56:02;;;;;;;;;;;;;;;11.09;77.74;101014.98;105888;1271;22509;-60
2022/05/07 05:58:34;;;;;;;;;;;;;;;11.19;77.28;101014.70;105743;1271;25406;-59
2022/05/07 06:01:06;;;;;;;;;;;;;;;11.26;77.08;101018.92;105761;1271;25247;-58
2022/05/07 06:03:36;;;;;;;;;;;;;;;11.35;77.00;101014.30;105984;1271;23923;-60
2022/05/07 06:06:07;;;;;;;;;;;;;;;11.45;76.88;101019.39;106209;1271;25413;-61
2022/05/07 06:08:37;;;;;;;;;;;;;;;11.53;76.95;101024.05;105781;1271;24319;-64
2022/05/07 06:11:08;;;;;;;;;;;;;;;11.60;76.82;101021.25;105895;1270;22471;-58
2022/05/07 06:13:38;;;;;;;;;;;;;;;11.68;76.45;101018.59;105662;1271;22534;-61
2022/05/07 06:16:08;;;;;;;;;;;;;;;11.77;76.49;101017.63;105963;1271;24327;-59
2022/05/07 06:18:38;;;;;;;;;;;;;;;11.86;76.52;101018.57;105996;1271;22556;-60
2022/05/07 06:21:09;;;;;;;;;;;;;;;11.95;76.23;101021.21;105930;1271;22515;-59
2022/05/07 06:23:39;;;;;;;;;;;;;;;12.06;76.31;101023.41;105962;1271;24198;-59
2022/05/07 06:29:01;;;;;;;;;;;;;;;12.30;76.30;101024.52;105780;1271;22524;-61
2022/05/07 06:31:31;;;;;;;;;;;;;;;12.42;75.86;101024.45;105790;1271;22577;-60
2022/05/07 06:34:01;;;;;;;;;;;;;;;12.52;75.47;101030.65;105779;1271;26620;-62
2022/05/07 06:36:31;;;;;;;;;;;;;;;12.60;75.19;101030.18;105669;1271;22513;-60
2022/05/07 06:39:01;;;;;;;;;;;;;;;12.67;74.97;101027.04;105701;1271;25602;-60
2022/05/07 06:41:31;;;;;;;;;;;;;;;12.76;75.19;101026.02;105841;1271;25577;-62
2022/05/07 06:44:01;;;;;;;;;;;;;;;12.87;75.03;101026.36;105683;1271;22509;-62
2022/05/07 06:46:32;;;;;;;;;;;;;;;12.97;74.70;101021.43;105669;1271;24319;-60
2022/05/07 06:49:01;;;;;;;;;;;;;;;13.09;74.63;101027.38;105698;1271;22534;-61
2022/05/07 06:51:34;;;;;;;;;;;;;;;13.19;74.28;101026.36;105628;1270;26593;-62
2022/05/07 06:54:04;;;;;;;;;;;;;;;13.30;73.95;101028.23;106076;1271;23950;-61
2022/05/07 06:56:35;;;;;;;;;;;;;;;13.40;73.55;101026.33;105952;1271;22509;-60
2022/05/07 06:59:04;;;;;;;;;;;;;;;13.49;73.52;101034.42;105647;1271;22509;-62
2022/05/07 07:01:34;;;;;;;;;;;;;;;13.57;73.38;101034.83;106226;1271;22513;-60
2022/05/07 07:04:05;;;;;;;;;;;;;;;13.65;73.23;101035.51;106214;1271;24383;-60
2022/05/07 07:06:36;;;;;;;;;;;;;;;13.73;72.88;101036.02;105730;1271;24286;-59
2022/05/07 07:09:07;;;;;;;;;;;;;;;13.81;72.82;101039.41;105552;1272;25331;-62
2022/05/07 07:11:37;;;;;;;;;;;;;;;13.88;72.49;101035.32;105775;1271;22631;-61
2022/05/07 07:14:08;;;;;;;;;;;;;;;13.97;72.28;101037.98;105754;1271;26496;-62
2022/05/07 07:16:38;;;;;;;;;;;;;;;14.05;72.04;101038.11;105835;1270;23327;-62
2022/05/07 07:19:09;;;;;;;;;;;;;;;14.14;72.07;101037.20;105839;1272;22572;-62
2022/05/07 07:21:41;;;;;;;;;;;;;;;14.24;71.79;101034.95;105740;1271;24330;-60
2022/05/07 07:30:55;;;;;;;;;;;;;;;14.60;70.16;101033.75;105642;1271;24323;-62
2022/05/07 07:33:25;;;;;;;;;;;;;;;14.68;70.16;101032.48;105968;1271;22552;-61
2022/05/07 07:35:55;;;;;;;;;;;;;;;14.78;69.91;101031.58;107067;1271;22600;-61
2022/05/07 07:38:25;;;;;;;;;;;;;;;14.88;69.79;101029.05;105890;1271;24338;-61
2022/05/07 07:40:55;;;;;;;;;;;;;;;15.00;69.64;101029.23;105790;1271;22671;-62
2022/05/07 07:43:26;;;;;;;;;;;;;;;15.13;69.47;101027.86;107054;1271;24228;-62
2022/05/07 07:48:46;;;;;;;;;;;;;;;15.39;68.42;101028.95;105750;1270;22529;-62
2022/05/07 07:51:18;;;;;;;;;;;;;;;15.47;68.23;101027.28;105862;1271;22504;-62
2022/05/07 07:53:48;;;;;;;;;;;;;;;15.56;67.63;101029.29;105914;1271;22620;-62
2022/05/07 07:56:19;;;;;;;;;;;;;;;15.68;67.72;101030.28;105966;1271;26551;-62
2022/05/07 07:58:51;;;;;;;;;;;;;;;15.79;67.58;101033.02;105816;1271;22535;-63
2022/05/07 08:01:21;;;;;;;;;;;;;;;15.92;66.29;101030.90;105780;1272;22522;-61
2022/05/07 08:03:51;;;;;;;;;;;;;;;16.01;64.92;101031.96;105987;1271;23912;-62
2022/05/07 08:06:21;;;;;;;;;;;;;;;16.06;64.33;101031.08;106133;1271;26473;-59
2022/05/07 08:11:46;;;;;;;;;;;;;;;16.22;64.62;101025.95;105774;1270;26278;-60
2022/05/07 08:14:16;;;;;;;;;;;;;;;16.30;63.35;101030.98;105734;1271;24306;-62
2022/05/07 08:16:46;;;;;;;;;;;;;;;16.37;63.28;101027.98;106000;1271;22540;-63
2022/05/07 08:19:16;;;;;;;;;;;;;;;16.44;62.33;101025.20;106161;1271;24272;-61
2022/05/07 08:21:46;;;;;;;;;;;;;;;16.51;62.01;101025.79;105963;1271;22607;-62
2022/05/07 08:24:17;;;;;;;;;;;;;;;16.59;61.42;101030.20;105826;1271;24297;-61
2022/05/07 08:26:47;;;;;;;;;;;;;;;16.68;60.81;101029.45;106086;1270;22738;-63
2022/05/07 08:29:20;;;;;;;;;;;;;;;16.79;59.80;101029.63;106004;1270;24460;-69
2022/05/07 08:31:50;;;;;;;;;;;;;;;16.91;59.26;101027.59;105912;1273;22525;-64
2022/05/07 08:34:23;;;;;;;;;;;;;;;16.99;58.65;101027.91;105978;1270;22532;-62
2022/05/07 08:36:53;;;;;;;;;;;;;;;17.05;57.58;101024.73;105765;1271;22572;-63
2022/05/07 08:39:25;;;;;;;;;;;;;;;17.07;57.24;101028.76;105901;1271;22683;-63
2022/05/07 08:41:55;;;;;;;;;;;;;;;17.11;56.77;101026.32;105924;1271;25391;-63
2022/05/07 08:44:25;;;;;;;;;;;;;;;17.14;56.92;101023.41;105911;1271;25333;-61
2022/05/07 08:46:55;;;;;;;;;;;;;;;17.12;56.36;101022.41;105722;1271;25300;-62
2022/05/07 08:49:25;;;;;;;;;;;;;;;17.10;56.22;101022.61;105854;1271;24335;-61
2022/05/07 08:51:56;;;;;;;;;;;;;;;17.12;55.77;101018.42;105808;1272;22541;-62
2022/05/07 08:54:27;;;;;;;;;;;;;;;17.15;55.81;101018.80;105993;1271;23457;-64
2022/05/07 08:56:59;;;;;;;;;;;;;;;17.17;55.57;101019.73;106140;1271;22534;-62
2022/05/07 08:59:29;;;;;;;;;;;;;;;17.20;55.01;101017.64;105831;1271;22542;-62
2022/05/07 09:02:00;;;;;;;;;;;;;;;17.26;55.24;101017.41;105827;1271;25230;-63
2022/05/07 09:04:31;;;;;;;;;;;;;;;17.32;54.88;101016.30;105955;1271;22539;-63
2022/05/07 09:07:03;;;;;;;;;;;;;;;17.40;54.92;101012.33;105941;1272;25232;-63
2022/05/07 09:09:33;;;;;;;;;;;;;;;17.49;54.34;101014.63;105981;1271;22513;-62
2022/05/07 09:12:03;;;;;;;;;;;;;;;17.55;53.70;101010.52;105938;1271;23904;-62
2022/05/07 09:14:32;;;;;;;;;;;;;;;17.66;53.26;101012.85;105704;1271;27341;-61
2022/05/07 09:17:02;;;;;;;;;;;;;;;17.75;53.93;101010.23;106080;1271;23059;-62
2022/05/07 09:19:33;;;;;;;;;;;;;;;17.88;53.81;101007.14;105792;1271;25414;-62
2022/05/07 09:22:10;;;;;;;;;;;;;;;18.00;53.24;101006.73;105994;1271;26605;-62
2022/05/07 09:24:42;;;;;;;;;;;;;;;18.11;53.51;101003.67;105942;1271;24563;-63
2022/05/07 09:27:18;;;;;;;;;;;;;;;18.26;52.76;101002.09;106032;1271;23864;-63
2022/05/07 09:29:48;;;;;;;;;;;;;;;18.43;52.28;101000.94;105975;1271;22534;-63
2022/05/07 09:32:18;;;;;;;;;;;;;;;18.54;52.31;101000.17;105933;1271;25361;-63
2022/05/07 09:37:58;;;;;;;;;;;;;;;18.66;51.27;100995.64;105415;1279;24242;-64
2022/05/07 09:40:28;;;;;;;;;;;;;;;18.77;50.78;100987.73;105530;1279;22675;-63
2022/05/07 09:42:58;;;;;;;;;;;;;;;18.94;50.33;100992.68;105505;1279;26718;-64
2022/05/07 09:45:28;;;;;;;;;;;;;;;19.02;49.49;100989.57;101725;1279;5439107;-64
2022/05/07 09:47:59;;;;;;;;;;;;;;;19.09;49.35;100987.18;105881;1279;22517;-63
2022/05/07 09:58:47;;;;;;;;;;;;;;;19.22;47.45;100979.73;105431;1279;24699;-65
2022/05/07 10:01:33;;;;;;;;;;;;;;;19.31;46.15;100976.39;105700;1279;24813;-65
2022/05/07 10:04:22;;;;;;;;;;;;;;;19.35;45.35;100974.17;105089;1282;23653;-64
2022/05/07 10:07:03;;;;;;;;;;;;;;;19.32;44.71;100972.89;104610;1285;22553;-65
2022/05/07 10:09:38;;;;;;;;;;;;;;;19.27;44.64;100968.84;105076;1281;24382;-64
2022/05/07 10:12:09;;;;;;;;;;;;;;;19.25;43.76;100966.89;105199;1281;22601;-63
2022/05/07 10:14:39;;;;;;;;;;;;;;;19.18;43.59;100962.19;105146;1281;22594;-65
2022/05/07 10:17:12;;;;;;;;;;;;;;;19.17;44.36;100965.64;105203;1281;24434;-65
2022/05/07 10:19:43;;;;;;;;;;;;;;;19.19;43.57;100962.54;105210;1281;22553;-63
2022/05/07 10:22:21;;;;;;;;;;;;;;;19.23;43.81;100960.52;105324;1281;22544;-64
2022/05/07 10:25:02;;;;;;;;;;;;;;;19.29;42.93;100957.86;105305;1281;23983;-64
2022/05/07 10:27:33;;;;;;;;;;;;;;;19.30;42.91;100955.95;105140;1281;22617;-63
2022/05/07 10:30:10;;;;;;;;;;;;;;;19.32;42.78;100956.77;104989;1282;26085;-63
2022/05/07 10:32:57;;;;;;;;;;;;;;;19.27;42.04;100952.31;106129;1281;22631;-64
2022/05/07 10:35:44;;;;;;;;;;;;;;;19.19;42.48;100949.36;105071;1281;22761;-64
2022/05/07 10:38:14;;;;;;;;;;;;;;;19.16;41.53;100944.80;105129;1281;25962;-64
2022/05/07 10:40:54;;;;;;;;;;;;;;;19.09;41.74;100945.04;105257;1281;25307;-64
2022/05/07 10:43:28;;;;;;;;;;;;;;;19.02;41.75;100946.98;105566;1279;24511;-64
2022/05/07 10:46:00;;;;;;;;;;;;;;;19.03;41.84;100942.70;105909;1272;22526;-63
2022/05/07 10:48:45;;;;;;;;;;;;;;;19.03;41.54;100939.56;105804;1272;24316;-65
2022/05/07 10:51:21;;;;;;;;;;;;;;;19.02;41.33;100937.45;105840;1273;24235;-65
2022/05/07 10:53:51;;;;;;;;;;;;;;;19.00;41.07;100938.64;106015;1271;25296;-64
2022/05/07 10:56:22;;;;;;;;;;;;;;;19.00;40.97;100935.97;105888;1271;22466;-64
2022/05/07 10:58:52;;;;;;;;;;;;;;;19.02;41.19;100932.56;105847;1271;24388;-64
2022/05/07 11:01:23;;;;;;;;;;;;;;;19.09;41.19;100929.70;106075;1272;24257;-64
2022/05/07 11:04:02;;;;;;;;;;;;;;;19.15;41.12;100930.00;108813;1273;24054;-64
2022/05/07 11:06:32;;;;;;;;;;;;;;;19.21;40.95;100929.17;105942;1273;24241;-64
2022/05/07 11:09:02;;;;;;;;;;;;;;;19.28;40.70;100928.63;106010;1271;24774;-64
2022/05/07 11:11:31;;;;;;;;;;;;;;;19.34;40.45;100926.45;105780;1274;24374;-64
2022/05/07 11:14:01;;;;;;;;;;;;;;;19.40;40.46;100921.58;105743;1272;22733;-64
2022/05/07 11:16:32;;;;;;;;;;;;;;;19.51;40.38;100921.73;106197;1271;24140;-65
2022/05/07 11:19:02;;;;;;;;;;;;;;;19.67;41.10;100918.15;105963;1271;25245;-66
2022/05/07 11:21:37;;;;;;;;;;;;;;;19.91;40.92;100918.73;106055;1271;23331;-66
2022/05/07 11:24:07;;;;;;;;;;;;;;;20.06;39.99;100914.95;105835;1270;24337;-65
2022/05/07 11:26:37;;;;;;;;;;;;;;;20.08;40.16;100909.21;106038;1271;26582;-66
2022/05/07 11:29:08;;;;;;;;;;;;;;;20.20;40.91;100906.19;105866;1271;22678;-65
2022/05/07 11:31:39;;;;;;;;;;;;;;;20.36;40.55;100904.65;105981;1270;25569;-65
2022/05/07 11:34:10;;;;;;;;;;;;;;;20.50;40.44;100903.05;105921;1271;22582;-65
2022/05/07 11:36:40;;;;;;;;;;;;;;;20.56;39.73;100898.38;105820;1271;22522;-64
2022/05/07 11:39:10;;;;;;;;;;;;;;;20.57;39.47;100896.93;105847;1271;24233;-64
2022/05/07 11:41:41;;;;;;;;;;;;;;;20.58;39.38;100898.78;105998;1271;22637;-65
2022/05/07 11:47:00;;;;;;;;;;;;;;;20.61;39.11;100900.60;105808;1272;22732;-65
2022/05/07 11:49:33;;;;;;;;;;;;;;;20.61;38.79;100895.48;106055;1271;22600;-65
2022/05/07 11:52:08;;;;;;;;;;;;;;;20.61;38.63;100893.17;105962;1271;22588;-65
2022/05/07 11:54:38;;;;;;;;;;;;;;;20.58;38.26;100893.98;105856;1271;25262;-65
2022/05/07 11:57:08;;;;;;;;;;;;;;;20.49;38.20;100895.53;105686;1271;22662;-65
2022/05/07 11:59:44;;;;;;;;;;;;;;;20.37;38.57;100896.70;106010;1271;24349;-65
2022/05/07 12:02:14;;;;;;;;;;;;;;;20.27;38.46;100896.79;105827;1271;24290;-66
2022/05/07 12:04:43;;;;;;;;;;;;;;;20.17;38.50;100894.38;106000;1271;23922;-65
2022/05/07 12:07:13;;;;;;;;;;;;;;;20.06;38.15;100894.91;105894;1271;22599;-65
2022/05/07 12:09:43;;;;;;;;;;;;;;;19.91;38.66;100891.02;106168;1271;25245;-65
2022/05/07 12:12:13;;;;;;;;;;;;;;;19.84;39.36;100890.20;105729;1271;25476;-65
2022/05/07 12:14:44;;;;;;;;;;;;;;;19.81;38.88;100888.52;105775;1271;25475;-65
2022/05/07 12:20:01;;;;;;;;;;;;;;;19.74;38.71;100881.54;105700;1271;22525;-64
2022/05/07 12:30:52;;;;;;;;;;;;;;;19.99;38.48;100871.06;105639;1271;22620;-65
2022/05/07 12:33:22;;;;;;;;;;;;;;;20.07;38.50;100870.52;105852;1271;25295;-65
2022/05/07 12:35:52;;;;;;;;;;;;;;;20.14;37.98;100867.10;105887;1271;22519;-64
2022/05/07 12:38:22;;;;;;;;;;;;;;;20.20;38.00;100867.83;105660;1271;24556;-65
2022/05/07 12:40:51;;;;;;;;;;;;;;;20.23;37.28;100866.73;105835;1271;25365;-65
2022/05/07 12:43:21;;;;;;;;;;;;;;;20.27;37.69;100865.09;106011;1271;24316;-65
2022/05/07 12:45:52;;;;;;;;;;;;;;;20.37;37.80;100863.73;105695;1271;22717;-65
2022/05/07 12:48:22;;;;;;;;;;;;;;;20.50;37.88;100863.60;105734;1271;25580;-65
2022/05/07 12:50:51;;;;;;;;;;;;;;;20.60;38.04;100865.55;108056;1270;25647;-66
2022/05/07 12:53:22;;;;;;;;;;;;;;;20.75;37.79;100860.92;107350;1270;22525;-65
2022/05/07 12:55:52;;;;;;;;;;;;;;;20.91;37.99;100861.64;105713;1271;22541;-65
2022/05/07 12:58:21;;;;;;;;;;;;;;;21.06;37.69;100857.49;105880;1271;25477;-65
2022/05/07 13:00:51;;;;;;;;;;;;;;;21.12;36.85;100850.80;105851;1271;22670;-66
2022/05/07 13:03:21;;;;;;;;;;;;;;;21.05;36.53;100844.77;105764;1271;25231;-67
2022/05/07 13:05:51;;;;;;;;;;;;;;;21.00;36.48;100850.33;105676;1271;26381;-66
2022/05/07 13:08:21;;;;;;;;;;;;;;;21.00;37.09;100844.75;105623;1271;25289;-67
2022/05/07 13:10:51;;;;;;;;;;;;;;;21.08;37.36;100839.71;105781;1271;22583;-66
2022/05/07 13:13:23;;;;;;;;;;;;;;;21.24;37.35;100840.66;105761;1271;22467;-66
2022/05/07 13:15:52;;;;;;;;;;;;;;;21.39;37.06;100841.36;105793;1271;25518;-66
2022/05/07 13:18:22;;;;;;;;;;;;;;;21.49;36.94;100832.73;105974;1271;22599;-66
2022/05/07 13:20:52;;;;;;;;;;;;;;;21.59;36.84;100833.78;105975;1271;22612;-67
2022/05/07 13:23:22;;;;;;;;;;;;;;;21.62;36.48;100834.92;105888;1271;25407;-66
2022/05/07 13:25:51;;;;;;;;;;;;;;;21.63;36.04;100832.55;105822;1271;22678;-66
2022/05/07 13:28:21;;;;;;;;;;;;;;;21.54;35.71;100830.78;105731;1271;25147;-65
2022/05/07 13:30:56;;;;;;;;;;;;;;;21.47;35.63;100830.67;105711;1271;22585;-66
2022/05/07 13:33:26;;;;;;;;;;;;;;;21.37;35.21;100832.46;106111;1271;22638;-66
2022/05/07 13:35:57;;;;;;;;;;;;;;;21.32;35.49;100829.64;105956;1271;22520;-65
2022/05/07 13:38:27;;;;;;;;;;;;;;;21.33;35.69;100823.53;105892;1271;22700;-65
2022/05/07 13:40:59;;;;;;;;;;;;;;;21.36;36.18;100823.69;105898;1271;22521;-65